ヌーク の空港の天気 - METARとTAF

ヌーク空港 ( BGGH / GOH ) - グリーンランド ヌーク
飛行場実況気象(Metar)
観測時間08/04 20:50 WGST (08/04 22:50 UTC)
風向・風速北 4m/s
視程10km以上
天気現象周辺で霧
少しの雲 雲底高度 240m
全天の4割程度の雲 雲底高度 6100m
気温8℃
湿度87%
気圧1004hPa
METARBGGH 042250Z 35008KT 9999 VCFG FEW008 SCT200 08/06 Q1004
過去の天気等 Google飛行場航空写真 Wunderground天気予報

過去48時間のMETAR

飛行場予報(TAF)
発表時間: 8/04 20:42 WGST (8/04 22:42 UTC)
予報対象時間: 4日20時 WGST ~ 4日23時 WGST
風向・風速北北西 3m/s
視程10km以上
全天の8割程度の雲 雲底高度 300m
4日20時 WGST ~ 4日22時 WGST に一時的に
全天の4割程度の雲 雲底高度 300m
4日22時 WGST から 確率 40% で
視程500m
天気現象散在した霧
全天の8割程度の雲 雲底高度 150m
TAF AMD BGGH 042242Z 0422/0501 34006KT 9999 BKN010
TEMPO 0422/0424 SCT010
PROB40 0500/0501 0500 BCFG BKN005